sensor_id;sensor_type;location;lat;lon;timestamp;P1;durP1;ratioP1;P2;durP2;ratioP2
22894;SDS011;11614;52.494;6.976;2023-04-16T00:00:23;41.10;;;19.52;;
22894;SDS011;11614;52.494;6.976;2023-04-16T00:02:49;49.08;;;21.65;;
22894;SDS011;11614;52.494;6.976;2023-04-16T00:05:14;44.33;;;19.63;;
22894;SDS011;11614;52.494;6.976;2023-04-16T00:07:40;33.55;;;16.25;;
22894;SDS011;11614;52.494;6.976;2023-04-16T00:10:06;39.15;;;17.63;;
22894;SDS011;11614;52.494;6.976;2023-04-16T00:12:32;40.13;;;16.63;;
22894;SDS011;11614;52.494;6.976;2023-04-16T00:14:58;40.97;;;19.27;;
22894;SDS011;11614;52.494;6.976;2023-04-16T00:17:24;38.20;;;19.23;;
22894;SDS011;11614;52.494;6.976;2023-04-16T00:19:50;41.60;;;20.37;;
22894;SDS011;11614;52.494;6.976;2023-04-16T00:22:16;41.30;;;19.47;;
22894;SDS011;11614;52.494;6.976;2023-04-16T00:24:41;29.67;;;13.83;;
22894;SDS011;11614;52.494;6.976;2023-04-16T00:27:07;41.23;;;21.03;;
22894;SDS011;11614;52.494;6.976;2023-04-16T00:29:33;42.95;;;20.15;;
22894;SDS011;11614;52.494;6.976;2023-04-16T00:31:59;38.50;;;18.77;;
22894;SDS011;11614;52.494;6.976;2023-04-16T00:34:25;43.08;;;21.30;;
22894;SDS011;11614;52.494;6.976;2023-04-16T00:36:50;40.28;;;20.02;;
22894;SDS011;11614;52.494;6.976;2023-04-16T00:39:16;37.38;;;19.52;;
22894;SDS011;11614;52.494;6.976;2023-04-16T00:41:42;44.33;;;22.20;;
22894;SDS011;11614;52.494;6.976;2023-04-16T00:44:09;36.97;;;18.38;;
22894;SDS011;11614;52.494;6.976;2023-04-16T00:46:35;43.57;;;21.83;;
22894;SDS011;11614;52.494;6.976;2023-04-16T00:49:01;45.85;;;20.20;;
22894;SDS011;11614;52.494;6.976;2023-04-16T00:51:27;42.03;;;22.65;;
22894;SDS011;11614;52.494;6.976;2023-04-16T00:53:53;40.83;;;21.17;;
22894;SDS011;11614;52.494;6.976;2023-04-16T00:56:19;43.30;;;21.57;;
22894;SDS011;11614;52.494;6.976;2023-04-16T00:58:46;41.20;;;22.13;;
22894;SDS011;11614;52.494;6.976;2023-04-16T01:01:11;41.20;;;21.50;;
22894;SDS011;11614;52.494;6.976;2023-04-16T01:03:44;39.25;;;19.00;;
22894;SDS011;11614;52.494;6.976;2023-04-16T01:06:12;52.83;;;24.63;;
22894;SDS011;11614;52.494;6.976;2023-04-16T01:08:40;37.50;;;19.20;;
22894;SDS011;11614;52.494;6.976;2023-04-16T01:11:06;44.10;;;22.10;;
22894;SDS011;11614;52.494;6.976;2023-04-16T01:13:32;45.97;;;24.03;;
22894;SDS011;11614;52.494;6.976;2023-04-16T01:15:59;48.70;;;24.77;;
22894;SDS011;11614;52.494;6.976;2023-04-16T01:18:25;40.42;;;19.95;;
22894;SDS011;11614;52.494;6.976;2023-04-16T01:20:51;43.97;;;23.50;;
22894;SDS011;11614;52.494;6.976;2023-04-16T01:23:17;43.20;;;18.93;;
22894;SDS011;11614;52.494;6.976;2023-04-16T01:25:46;37.70;;;19.52;;
22894;SDS011;11614;52.494;6.976;2023-04-16T01:28:12;39.10;;;23.13;;
22894;SDS011;11614;52.494;6.976;2023-04-16T01:30:38;41.22;;;23.35;;
22894;SDS011;11614;52.494;6.976;2023-04-16T01:33:04;44.17;;;24.70;;
22894;SDS011;11614;52.494;6.976;2023-04-16T01:35:31;48.03;;;23.08;;
22894;SDS011;11614;52.494;6.976;2023-04-16T01:37:56;37.85;;;19.38;;
22894;SDS011;11614;52.494;6.976;2023-04-16T01:40:22;48.50;;;24.08;;
22894;SDS011;11614;52.494;6.976;2023-04-16T01:42:47;42.83;;;22.10;;
22894;SDS011;11614;52.494;6.976;2023-04-16T01:45:15;36.25;;;20.23;;
22894;SDS011;11614;52.494;6.976;2023-04-16T01:47:40;45.80;;;24.00;;
22894;SDS011;11614;52.494;6.976;2023-04-16T01:50:06;44.63;;;23.70;;
22894;SDS011;11614;52.494;6.976;2023-04-16T01:52:32;38.63;;;17.20;;
22894;SDS011;11614;52.494;6.976;2023-04-16T01:54:58;44.93;;;21.63;;
22894;SDS011;11614;52.494;6.976;2023-04-16T01:57:24;39.33;;;22.80;;
22894;SDS011;11614;52.494;6.976;2023-04-16T01:59:50;42.23;;;21.40;;
22894;SDS011;11614;52.494;6.976;2023-04-16T02:02:15;40.93;;;24.90;;
22894;SDS011;11614;52.494;6.976;2023-04-16T02:04:42;36.08;;;22.23;;
22894;SDS011;11614;52.494;6.976;2023-04-16T02:07:09;41.50;;;22.67;;
22894;SDS011;11614;52.494;6.976;2023-04-16T02:09:36;34.53;;;19.63;;
22894;SDS011;11614;52.494;6.976;2023-04-16T02:12:03;40.00;;;24.17;;
22894;SDS011;11614;52.494;6.976;2023-04-16T02:14:29;41.55;;;23.45;;
22894;SDS011;11614;52.494;6.976;2023-04-16T02:16:55;39.25;;;22.65;;
22894;SDS011;11614;52.494;6.976;2023-04-16T02:19:20;43.47;;;25.35;;
22894;SDS011;11614;52.494;6.976;2023-04-16T02:21:47;43.63;;;25.65;;
22894;SDS011;11614;52.494;6.976;2023-04-16T02:24:13;42.20;;;21.60;;
22894;SDS011;11614;52.494;6.976;2023-04-16T02:26:38;34.70;;;19.90;;
22894;SDS011;11614;52.494;6.976;2023-04-16T02:29:04;45.95;;;24.52;;
22894;SDS011;11614;52.494;6.976;2023-04-16T02:31:30;37.08;;;21.33;;
22894;SDS011;11614;52.494;6.976;2023-04-16T02:33:56;42.90;;;25.97;;
22894;SDS011;11614;52.494;6.976;2023-04-16T02:36:22;45.00;;;22.77;;
22894;SDS011;11614;52.494;6.976;2023-04-16T02:38:48;51.05;;;27.50;;
22894;SDS011;11614;52.494;6.976;2023-04-16T02:41:14;39.83;;;24.27;;
22894;SDS011;11614;52.494;6.976;2023-04-16T02:43:39;40.50;;;22.33;;
22894;SDS011;11614;52.494;6.976;2023-04-16T02:46:05;39.27;;;23.67;;
22894;SDS011;11614;52.494;6.976;2023-04-16T02:48:31;39.38;;;22.02;;
22894;SDS011;11614;52.494;6.976;2023-04-16T02:50:57;41.75;;;22.63;;
22894;SDS011;11614;52.494;6.976;2023-04-16T02:53:22;40.85;;;23.67;;
22894;SDS011;11614;52.494;6.976;2023-04-16T02:55:52;40.95;;;26.58;;
22894;SDS011;11614;52.494;6.976;2023-04-16T02:58:21;39.13;;;23.42;;
22894;SDS011;11614;52.494;6.976;2023-04-16T03:00:48;41.70;;;24.27;;
22894;SDS011;11614;52.494;6.976;2023-04-16T03:03:14;40.17;;;23.20;;
22894;SDS011;11614;52.494;6.976;2023-04-16T03:05:41;38.53;;;20.42;;
22894;SDS011;11614;52.494;6.976;2023-04-16T03:08:07;27.10;;;16.27;;
22894;SDS011;11614;52.494;6.976;2023-04-16T03:10:32;32.22;;;20.25;;
22894;SDS011;11614;52.494;6.976;2023-04-16T03:12:59;33.95;;;20.48;;
22894;SDS011;11614;52.494;6.976;2023-04-16T03:15:25;35.53;;;19.98;;
22894;SDS011;11614;52.494;6.976;2023-04-16T03:17:51;37.00;;;23.50;;
22894;SDS011;11614;52.494;6.976;2023-04-16T03:20:17;35.53;;;22.13;;
22894;SDS011;11614;52.494;6.976;2023-04-16T03:22:43;37.33;;;20.23;;
22894;SDS011;11614;52.494;6.976;2023-04-16T03:25:10;40.27;;;22.00;;
22894;SDS011;11614;52.494;6.976;2023-04-16T03:27:36;38.13;;;22.33;;
22894;SDS011;11614;52.494;6.976;2023-04-16T03:30:06;41.63;;;23.20;;
22894;SDS011;11614;52.494;6.976;2023-04-16T03:32:32;37.57;;;22.53;;
22894;SDS011;11614;52.494;6.976;2023-04-16T03:34:58;31.80;;;18.75;;
22894;SDS011;11614;52.494;6.976;2023-04-16T03:37:24;37.22;;;20.50;;
22894;SDS011;11614;52.494;6.976;2023-04-16T03:39:50;34.00;;;20.85;;
22894;SDS011;11614;52.494;6.976;2023-04-16T03:42:16;34.75;;;20.10;;
22894;SDS011;11614;52.494;6.976;2023-04-16T03:44:42;38.80;;;24.27;;
22894;SDS011;11614;52.494;6.976;2023-04-16T03:47:07;33.58;;;20.15;;
22894;SDS011;11614;52.494;6.976;2023-04-16T03:49:33;37.17;;;22.80;;
22894;SDS011;11614;52.494;6.976;2023-04-16T03:51:59;35.80;;;20.73;;
22894;SDS011;11614;52.494;6.976;2023-04-16T03:54:25;35.60;;;21.93;;
22894;SDS011;11614;52.494;6.976;2023-04-16T03:56:51;36.63;;;21.50;;
22894;SDS011;11614;52.494;6.976;2023-04-16T03:59:17;37.47;;;20.10;;
22894;SDS011;11614;52.494;6.976;2023-04-16T04:01:43;36.70;;;22.75;;
22894;SDS011;11614;52.494;6.976;2023-04-16T04:04:08;36.33;;;20.27;;
22894;SDS011;11614;52.494;6.976;2023-04-16T04:06:34;32.35;;;18.85;;
22894;SDS011;11614;52.494;6.976;2023-04-16T04:09:00;34.20;;;19.60;;
22894;SDS011;11614;52.494;6.976;2023-04-16T04:11:26;30.02;;;19.00;;
22894;SDS011;11614;52.494;6.976;2023-04-16T04:13:52;34.50;;;21.10;;
22894;SDS011;11614;52.494;6.976;2023-04-16T04:16:18;33.93;;;21.93;;
22894;SDS011;11614;52.494;6.976;2023-04-16T04:18:43;34.17;;;19.57;;
22894;SDS011;11614;52.494;6.976;2023-04-16T04:21:09;34.43;;;23.47;;
22894;SDS011;11614;52.494;6.976;2023-04-16T04:23:35;35.37;;;21.33;;
22894;SDS011;11614;52.494;6.976;2023-04-16T04:26:01;32.60;;;22.13;;
22894;SDS011;11614;52.494;6.976;2023-04-16T04:28:28;35.23;;;21.33;;
22894;SDS011;11614;52.494;6.976;2023-04-16T04:30:54;33.07;;;21.23;;
22894;SDS011;11614;52.494;6.976;2023-04-16T04:33:20;36.40;;;21.43;;
22894;SDS011;11614;52.494;6.976;2023-04-16T04:35:46;31.23;;;17.43;;
22894;SDS011;11614;52.494;6.976;2023-04-16T04:38:11;41.83;;;23.33;;
22894;SDS011;11614;52.494;6.976;2023-04-16T04:40:37;36.50;;;20.43;;
22894;SDS011;11614;52.494;6.976;2023-04-16T04:43:03;31.43;;;19.00;;
22894;SDS011;11614;52.494;6.976;2023-04-16T04:45:29;38.07;;;23.73;;
22894;SDS011;11614;52.494;6.976;2023-04-16T04:47:55;41.10;;;22.17;;
22894;SDS011;11614;52.494;6.976;2023-04-16T04:50:21;33.20;;;18.10;;
22894;SDS011;11614;52.494;6.976;2023-04-16T04:52:47;37.70;;;22.07;;
22894;SDS011;11614;52.494;6.976;2023-04-16T04:55:13;30.10;;;17.20;;
22894;SDS011;11614;52.494;6.976;2023-04-16T04:57:40;40.03;;;22.90;;
22894;SDS011;11614;52.494;6.976;2023-04-16T05:00:06;36.63;;;21.23;;
22894;SDS011;11614;52.494;6.976;2023-04-16T05:02:32;37.90;;;21.47;;
22894;SDS011;11614;52.494;6.976;2023-04-16T05:04:58;39.23;;;24.37;;
22894;SDS011;11614;52.494;6.976;2023-04-16T05:07:23;36.97;;;21.30;;
22894;SDS011;11614;52.494;6.976;2023-04-16T05:09:49;33.77;;;20.67;;
22894;SDS011;11614;52.494;6.976;2023-04-16T05:12:16;39.30;;;22.20;;
22894;SDS011;11614;52.494;6.976;2023-04-16T05:14:41;37.07;;;21.83;;
22894;SDS011;11614;52.494;6.976;2023-04-16T05:17:07;37.83;;;23.90;;
22894;SDS011;11614;52.494;6.976;2023-04-16T05:19:34;27.47;;;16.03;;
22894;SDS011;11614;52.494;6.976;2023-04-16T05:22:00;35.63;;;20.10;;
22894;SDS011;11614;52.494;6.976;2023-04-16T05:24:26;44.83;;;28.40;;
22894;SDS011;11614;52.494;6.976;2023-04-16T05:26:53;37.50;;;25.07;;
22894;SDS011;11614;52.494;6.976;2023-04-16T05:29:20;38.33;;;24.47;;
22894;SDS011;11614;52.494;6.976;2023-04-16T05:31:46;40.07;;;22.27;;
22894;SDS011;11614;52.494;6.976;2023-04-16T05:34:12;43.70;;;23.20;;
22894;SDS011;11614;52.494;6.976;2023-04-16T05:36:38;38.63;;;22.23;;
22894;SDS011;11614;52.494;6.976;2023-04-16T05:39:04;31.43;;;17.67;;
22894;SDS011;11614;52.494;6.976;2023-04-16T05:41:31;36.37;;;22.40;;
22894;SDS011;11614;52.494;6.976;2023-04-16T05:43:57;37.50;;;22.37;;
22894;SDS011;11614;52.494;6.976;2023-04-16T05:46:23;35.70;;;21.85;;
22894;SDS011;11614;52.494;6.976;2023-04-16T05:48:49;42.70;;;23.80;;
22894;SDS011;11614;52.494;6.976;2023-04-16T05:51:15;40.70;;;23.47;;
22894;SDS011;11614;52.494;6.976;2023-04-16T05:53:41;34.47;;;20.30;;
22894;SDS011;11614;52.494;6.976;2023-04-16T05:56:06;40.23;;;24.17;;
22894;SDS011;11614;52.494;6.976;2023-04-16T05:58:32;38.55;;;21.20;;
22894;SDS011;11614;52.494;6.976;2023-04-16T06:00:58;36.10;;;21.98;;
22894;SDS011;11614;52.494;6.976;2023-04-16T06:03:25;35.78;;;21.73;;
22894;SDS011;11614;52.494;6.976;2023-04-16T06:05:51;38.13;;;23.00;;
22894;SDS011;11614;52.494;6.976;2023-04-16T06:08:16;38.10;;;23.00;;
22894;SDS011;11614;52.494;6.976;2023-04-16T06:10:44;38.17;;;24.70;;
22894;SDS011;11614;52.494;6.976;2023-04-16T06:13:11;33.90;;;22.25;;
22894;SDS011;11614;52.494;6.976;2023-04-16T06:15:37;33.20;;;19.80;;
22894;SDS011;11614;52.494;6.976;2023-04-16T06:18:03;35.92;;;20.17;;
22894;SDS011;11614;52.494;6.976;2023-04-16T06:20:29;36.67;;;21.25;;
22894;SDS011;11614;52.494;6.976;2023-04-16T06:22:55;35.47;;;20.38;;
22894;SDS011;11614;52.494;6.976;2023-04-16T06:25:21;38.95;;;21.98;;
22894;SDS011;11614;52.494;6.976;2023-04-16T06:27:47;40.70;;;20.67;;
22894;SDS011;11614;52.494;6.976;2023-04-16T06:30:13;33.70;;;19.55;;
22894;SDS011;11614;52.494;6.976;2023-04-16T06:32:39;34.25;;;19.88;;
22894;SDS011;11614;52.494;6.976;2023-04-16T06:35:06;35.80;;;22.23;;
22894;SDS011;11614;52.494;6.976;2023-04-16T06:37:32;35.85;;;21.75;;
22894;SDS011;11614;52.494;6.976;2023-04-16T06:39:58;38.63;;;23.08;;
22894;SDS011;11614;52.494;6.976;2023-04-16T06:42:24;37.72;;;23.30;;
22894;SDS011;11614;52.494;6.976;2023-04-16T06:44:50;34.45;;;21.98;;
22894;SDS011;11614;52.494;6.976;2023-04-16T06:47:15;31.65;;;20.55;;
22894;SDS011;11614;52.494;6.976;2023-04-16T06:49:41;32.78;;;18.77;;
22894;SDS011;11614;52.494;6.976;2023-04-16T06:52:07;36.70;;;23.33;;
22894;SDS011;11614;52.494;6.976;2023-04-16T06:54:32;30.83;;;18.13;;
22894;SDS011;11614;52.494;6.976;2023-04-16T06:56:58;36.97;;;22.85;;
22894;SDS011;11614;52.494;6.976;2023-04-16T06:59:24;32.78;;;20.85;;
22894;SDS011;11614;52.494;6.976;2023-04-16T07:01:50;33.88;;;21.17;;
22894;SDS011;11614;52.494;6.976;2023-04-16T07:04:16;35.03;;;22.08;;
22894;SDS011;11614;52.494;6.976;2023-04-16T07:06:42;31.20;;;21.40;;
22894;SDS011;11614;52.494;6.976;2023-04-16T07:09:08;31.42;;;21.50;;
22894;SDS011;11614;52.494;6.976;2023-04-16T07:11:33;37.58;;;22.17;;
22894;SDS011;11614;52.494;6.976;2023-04-16T07:13:59;34.90;;;22.77;;
22894;SDS011;11614;52.494;6.976;2023-04-16T07:16:25;33.33;;;21.58;;
22894;SDS011;11614;52.494;6.976;2023-04-16T07:18:51;33.42;;;19.65;;
22894;SDS011;11614;52.494;6.976;2023-04-16T07:21:17;28.20;;;17.45;;
22894;SDS011;11614;52.494;6.976;2023-04-16T07:23:42;34.75;;;20.42;;
22894;SDS011;11614;52.494;6.976;2023-04-16T07:26:08;29.02;;;19.42;;
22894;SDS011;11614;52.494;6.976;2023-04-16T07:28:35;28.92;;;19.15;;
22894;SDS011;11614;52.494;6.976;2023-04-16T07:31:01;30.20;;;20.52;;
22894;SDS011;11614;52.494;6.976;2023-04-16T07:33:27;27.38;;;18.90;;
22894;SDS011;11614;52.494;6.976;2023-04-16T07:35:53;32.80;;;20.42;;
22894;SDS011;11614;52.494;6.976;2023-04-16T07:38:18;34.50;;;18.55;;
22894;SDS011;11614;52.494;6.976;2023-04-16T07:40:44;25.27;;;16.52;;
22894;SDS011;11614;52.494;6.976;2023-04-16T07:43:13;26.88;;;17.83;;
22894;SDS011;11614;52.494;6.976;2023-04-16T07:45:40;27.67;;;17.63;;
22894;SDS011;11614;52.494;6.976;2023-04-16T07:48:05;28.75;;;17.98;;
22894;SDS011;11614;52.494;6.976;2023-04-16T07:50:31;30.45;;;18.38;;
22894;SDS011;11614;52.494;6.976;2023-04-16T07:52:57;23.27;;;15.75;;
22894;SDS011;11614;52.494;6.976;2023-04-16T07:55:23;28.25;;;17.73;;
22894;SDS011;11614;52.494;6.976;2023-04-16T07:57:49;24.88;;;16.55;;
22894;SDS011;11614;52.494;6.976;2023-04-16T08:00:15;31.67;;;18.70;;
22894;SDS011;11614;52.494;6.976;2023-04-16T08:02:41;25.40;;;16.33;;
22894;SDS011;11614;52.494;6.976;2023-04-16T08:05:07;28.27;;;18.08;;
22894;SDS011;11614;52.494;6.976;2023-04-16T08:07:34;26.98;;;16.25;;
22894;SDS011;11614;52.494;6.976;2023-04-16T08:10:00;25.90;;;16.27;;
22894;SDS011;11614;52.494;6.976;2023-04-16T08:12:26;23.25;;;14.23;;
22894;SDS011;11614;52.494;6.976;2023-04-16T08:14:51;22.75;;;12.85;;
22894;SDS011;11614;52.494;6.976;2023-04-16T08:17:17;26.85;;;17.25;;
22894;SDS011;11614;52.494;6.976;2023-04-16T08:19:43;21.33;;;14.65;;
22894;SDS011;11614;52.494;6.976;2023-04-16T08:22:09;22.10;;;15.13;;
22894;SDS011;11614;52.494;6.976;2023-04-16T08:24:38;19.42;;;14.68;;
22894;SDS011;11614;52.494;6.976;2023-04-16T08:27:04;21.67;;;14.80;;
22894;SDS011;11614;52.494;6.976;2023-04-16T08:29:30;23.17;;;16.30;;
22894;SDS011;11614;52.494;6.976;2023-04-16T08:31:57;24.08;;;15.38;;
22894;SDS011;11614;52.494;6.976;2023-04-16T08:34:23;24.88;;;14.80;;
22894;SDS011;11614;52.494;6.976;2023-04-16T08:36:49;17.38;;;12.45;;
22894;SDS011;11614;52.494;6.976;2023-04-16T08:39:14;24.23;;;15.80;;
22894;SDS011;11614;52.494;6.976;2023-04-16T08:41:41;20.55;;;14.73;;
22894;SDS011;11614;52.494;6.976;2023-04-16T08:44:42;22.40;;;16.65;;
22894;SDS011;11614;52.494;6.976;2023-04-16T08:47:04;22.48;;;13.95;;
22894;SDS011;11614;52.494;6.976;2023-04-16T08:49:31;18.63;;;13.13;;
22894;SDS011;11614;52.494;6.976;2023-04-16T08:52:00;22.15;;;15.40;;
22894;SDS011;11614;52.494;6.976;2023-04-16T08:54:37;26.48;;;16.67;;
22894;SDS011;11614;52.494;6.976;2023-04-16T08:57:21;26.58;;;17.27;;
22894;SDS011;11614;52.494;6.976;2023-04-16T08:59:50;21.85;;;15.48;;
22894;SDS011;11614;52.494;6.976;2023-04-16T09:02:18;20.45;;;14.55;;
22894;SDS011;11614;52.494;6.976;2023-04-16T09:04:44;20.85;;;14.25;;
22894;SDS011;11614;52.494;6.976;2023-04-16T09:07:12;24.08;;;15.10;;
22894;SDS011;11614;52.494;6.976;2023-04-16T09:09:38;21.15;;;14.50;;
22894;SDS011;11614;52.494;6.976;2023-04-16T09:12:04;23.95;;;14.10;;
22894;SDS011;11614;52.494;6.976;2023-04-16T09:14:32;21.50;;;14.15;;
22894;SDS011;11614;52.494;6.976;2023-04-16T09:16:58;23.52;;;15.93;;
22894;SDS011;11614;52.494;6.976;2023-04-16T09:19:26;18.23;;;11.02;;
22894;SDS011;11614;52.494;6.976;2023-04-16T09:21:52;21.70;;;15.32;;
22894;SDS011;11614;52.494;6.976;2023-04-16T09:24:18;23.83;;;15.43;;
22894;SDS011;11614;52.494;6.976;2023-04-16T09:26:45;22.45;;;15.57;;
22894;SDS011;11614;52.494;6.976;2023-04-16T09:29:11;24.13;;;17.02;;
22894;SDS011;11614;52.494;6.976;2023-04-16T09:31:36;20.67;;;14.95;;
22894;SDS011;11614;52.494;6.976;2023-04-16T09:34:06;22.35;;;15.18;;
22894;SDS011;11614;52.494;6.976;2023-04-16T09:36:33;24.40;;;16.33;;
22894;SDS011;11614;52.494;6.976;2023-04-16T09:38:59;20.42;;;14.38;;
22894;SDS011;11614;52.494;6.976;2023-04-16T09:41:27;24.52;;;16.00;;
22894;SDS011;11614;52.494;6.976;2023-04-16T09:43:57;22.42;;;16.52;;
22894;SDS011;11614;52.494;6.976;2023-04-16T09:46:44;21.05;;;15.07;;
22894;SDS011;11614;52.494;6.976;2023-04-16T09:49:12;23.98;;;15.68;;
22894;SDS011;11614;52.494;6.976;2023-04-16T09:51:45;21.38;;;15.68;;
22894;SDS011;11614;52.494;6.976;2023-04-16T09:54:11;21.30;;;15.70;;
22894;SDS011;11614;52.494;6.976;2023-04-16T09:56:38;22.10;;;15.68;;
22894;SDS011;11614;52.494;6.976;2023-04-16T09:59:04;20.15;;;14.32;;
22894;SDS011;11614;52.494;6.976;2023-04-16T10:01:30;20.17;;;15.88;;
22894;SDS011;11614;52.494;6.976;2023-04-16T10:03:57;21.50;;;16.05;;
22894;SDS011;11614;52.494;6.976;2023-04-16T10:06:23;23.25;;;15.50;;
22894;SDS011;11614;52.494;6.976;2023-04-16T10:08:52;19.48;;;14.38;;
22894;SDS011;11614;52.494;6.976;2023-04-16T10:11:21;20.08;;;14.98;;
22894;SDS011;11614;52.494;6.976;2023-04-16T10:13:48;20.77;;;13.65;;
22894;SDS011;11614;52.494;6.976;2023-04-16T10:16:14;16.17;;;11.95;;
22894;SDS011;11614;52.494;6.976;2023-04-16T10:18:42;20.90;;;13.90;;
22894;SDS011;11614;52.494;6.976;2023-04-16T10:21:08;14.20;;;11.52;;
22894;SDS011;11614;52.494;6.976;2023-04-16T10:23:39;20.02;;;13.73;;
22894;SDS011;11614;52.494;6.976;2023-04-16T10:26:05;21.42;;;15.63;;
22894;SDS011;11614;52.494;6.976;2023-04-16T10:28:31;18.85;;;14.38;;
22894;SDS011;11614;52.494;6.976;2023-04-16T10:30:59;18.45;;;13.48;;
22894;SDS011;11614;52.494;6.976;2023-04-16T10:33:27;19.45;;;13.52;;
22894;SDS011;11614;52.494;6.976;2023-04-16T10:36:12;19.73;;;12.77;;
22894;SDS011;11614;52.494;6.976;2023-04-16T10:38:45;20.77;;;16.67;;
22894;SDS011;11614;52.494;6.976;2023-04-16T10:41:11;21.50;;;14.77;;
22894;SDS011;11614;52.494;6.976;2023-04-16T10:43:44;18.95;;;13.85;;
22894;SDS011;11614;52.494;6.976;2023-04-16T10:46:20;21.05;;;16.27;;
22894;SDS011;11614;52.494;6.976;2023-04-16T10:48:47;21.55;;;14.65;;
22894;SDS011;11614;52.494;6.976;2023-04-16T10:51:27;21.48;;;15.32;;
22894;SDS011;11614;52.494;6.976;2023-04-16T10:53:57;13.93;;;9.50;;
22894;SDS011;11614;52.494;6.976;2023-04-16T10:56:24;20.85;;;15.18;;
22894;SDS011;11614;52.494;6.976;2023-04-16T10:58:51;16.23;;;13.95;;
22894;SDS011;11614;52.494;6.976;2023-04-16T11:01:18;14.77;;;11.20;;
22894;SDS011;11614;52.494;6.976;2023-04-16T11:03:51;18.73;;;13.63;;
22894;SDS011;11614;52.494;6.976;2023-04-16T11:06:23;23.60;;;15.20;;
22894;SDS011;11614;52.494;6.976;2023-04-16T11:08:50;18.77;;;13.90;;
22894;SDS011;11614;52.494;6.976;2023-04-16T11:11:19;20.05;;;14.27;;
22894;SDS011;11614;52.494;6.976;2023-04-16T11:13:45;18.25;;;14.50;;
22894;SDS011;11614;52.494;6.976;2023-04-16T11:16:12;19.10;;;14.85;;
22894;SDS011;11614;52.494;6.976;2023-04-16T11:18:39;20.13;;;13.50;;
22894;SDS011;11614;52.494;6.976;2023-04-16T11:21:08;19.67;;;13.95;;
22894;SDS011;11614;52.494;6.976;2023-04-16T11:23:45;19.02;;;14.90;;
22894;SDS011;11614;52.494;6.976;2023-04-16T11:26:24;22.08;;;14.98;;
22894;SDS011;11614;52.494;6.976;2023-04-16T11:28:52;20.63;;;14.82;;
22894;SDS011;11614;52.494;6.976;2023-04-16T11:31:18;20.40;;;14.85;;
22894;SDS011;11614;52.494;6.976;2023-04-16T11:33:44;21.83;;;15.18;;
22894;SDS011;11614;52.494;6.976;2023-04-16T11:36:10;19.40;;;14.57;;
22894;SDS011;11614;52.494;6.976;2023-04-16T11:38:37;17.77;;;13.93;;
22894;SDS011;11614;52.494;6.976;2023-04-16T11:41:05;16.20;;;11.88;;
22894;SDS011;11614;52.494;6.976;2023-04-16T11:43:31;21.20;;;14.65;;
22894;SDS011;11614;52.494;6.976;2023-04-16T11:45:58;18.90;;;13.88;;
22894;SDS011;11614;52.494;6.976;2023-04-16T11:48:24;17.25;;;13.77;;
22894;SDS011;11614;52.494;6.976;2023-04-16T11:50:54;16.73;;;14.23;;
22894;SDS011;11614;52.494;6.976;2023-04-16T11:53:21;18.15;;;14.40;;
22894;SDS011;11614;52.494;6.976;2023-04-16T11:55:46;21.48;;;13.40;;
22894;SDS011;11614;52.494;6.976;2023-04-16T11:58:13;20.05;;;15.35;;
22894;SDS011;11614;52.494;6.976;2023-04-16T12:00:43;20.88;;;15.07;;
22894;SDS011;11614;52.494;6.976;2023-04-16T12:03:09;19.02;;;13.88;;
22894;SDS011;11614;52.494;6.976;2023-04-16T12:05:36;17.95;;;14.00;;
22894;SDS011;11614;52.494;6.976;2023-04-16T12:08:09;17.95;;;13.73;;
22894;SDS011;11614;52.494;6.976;2023-04-16T12:10:35;15.57;;;12.45;;
22894;SDS011;11614;52.494;6.976;2023-04-16T12:13:15;21.08;;;16.10;;
22894;SDS011;11614;52.494;6.976;2023-04-16T12:15:51;19.23;;;14.35;;
22894;SDS011;11614;52.494;6.976;2023-04-16T12:18:17;17.05;;;14.23;;
22894;SDS011;11614;52.494;6.976;2023-04-16T12:20:44;16.70;;;12.43;;
22894;SDS011;11614;52.494;6.976;2023-04-16T12:23:27;17.05;;;11.50;;
22894;SDS011;11614;52.494;6.976;2023-04-16T12:25:53;15.50;;;13.90;;
22894;SDS011;11614;52.494;6.976;2023-04-16T12:28:29;17.60;;;13.85;;
22894;SDS011;11614;52.494;6.976;2023-04-16T12:30:56;18.85;;;13.57;;
22894;SDS011;11614;52.494;6.976;2023-04-16T12:33:22;16.75;;;13.73;;
22894;SDS011;11614;52.494;6.976;2023-04-16T12:35:48;16.55;;;12.48;;
22894;SDS011;11614;52.494;6.976;2023-04-16T12:38:14;18.40;;;12.77;;
22894;SDS011;11614;52.494;6.976;2023-04-16T12:40:41;20.15;;;12.95;;
22894;SDS011;11614;52.494;6.976;2023-04-16T12:43:07;19.05;;;12.75;;
22894;SDS011;11614;52.494;6.976;2023-04-16T12:45:34;15.70;;;12.90;;
22894;SDS011;11614;52.494;6.976;2023-04-16T12:48:00;13.20;;;10.82;;
22894;SDS011;11614;52.494;6.976;2023-04-16T12:50:26;17.20;;;11.65;;
22894;SDS011;11614;52.494;6.976;2023-04-16T12:52:55;20.10;;;12.55;;
22894;SDS011;11614;52.494;6.976;2023-04-16T12:55:21;18.70;;;12.57;;
22894;SDS011;11614;52.494;6.976;2023-04-16T12:57:47;17.80;;;12.13;;
22894;SDS011;11614;52.494;6.976;2023-04-16T13:00:14;18.52;;;11.40;;
22894;SDS011;11614;52.494;6.976;2023-04-16T13:02:40;15.02;;;10.93;;
22894;SDS011;11614;52.494;6.976;2023-04-16T13:05:06;18.88;;;10.77;;
22894;SDS011;11614;52.494;6.976;2023-04-16T13:07:32;15.32;;;10.57;;
22894;SDS011;11614;52.494;6.976;2023-04-16T13:09:59;12.57;;;10.98;;
22894;SDS011;11614;52.494;6.976;2023-04-16T13:12:25;17.13;;;12.55;;
22894;SDS011;11614;52.494;6.976;2023-04-16T13:14:52;16.13;;;12.25;;
22894;SDS011;11614;52.494;6.976;2023-04-16T13:17:18;16.08;;;12.95;;
22894;SDS011;11614;52.494;6.976;2023-04-16T13:19:44;12.65;;;9.38;;
22894;SDS011;11614;52.494;6.976;2023-04-16T13:22:10;17.40;;;11.52;;
22894;SDS011;11614;52.494;6.976;2023-04-16T13:24:36;15.50;;;11.00;;
22894;SDS011;11614;52.494;6.976;2023-04-16T13:27:03;14.85;;;11.27;;
22894;SDS011;11614;52.494;6.976;2023-04-16T13:29:29;16.77;;;12.15;;
22894;SDS011;11614;52.494;6.976;2023-04-16T13:31:55;16.05;;;11.73;;
22894;SDS011;11614;52.494;6.976;2023-04-16T13:34:21;16.83;;;12.32;;
22894;SDS011;11614;52.494;6.976;2023-04-16T13:36:47;15.50;;;11.35;;
22894;SDS011;11614;52.494;6.976;2023-04-16T13:39:13;18.33;;;10.88;;
22894;SDS011;11614;52.494;6.976;2023-04-16T13:41:39;13.27;;;10.05;;
22894;SDS011;11614;52.494;6.976;2023-04-16T13:44:05;16.83;;;11.63;;
22894;SDS011;11614;52.494;6.976;2023-04-16T13:46:32;12.18;;;9.48;;
22894;SDS011;11614;52.494;6.976;2023-04-16T13:48:58;16.40;;;10.02;;
22894;SDS011;11614;52.494;6.976;2023-04-16T13:51:24;13.98;;;9.50;;
22894;SDS011;11614;52.494;6.976;2023-04-16T13:53:52;12.20;;;10.05;;
22894;SDS011;11614;52.494;6.976;2023-04-16T13:56:18;12.73;;;9.98;;
22894;SDS011;11614;52.494;6.976;2023-04-16T13:58:44;15.80;;;10.43;;
22894;SDS011;11614;52.494;6.976;2023-04-16T14:01:10;14.43;;;10.02;;
22894;SDS011;11614;52.494;6.976;2023-04-16T14:03:37;15.00;;;11.20;;
22894;SDS011;11614;52.494;6.976;2023-04-16T14:06:04;14.68;;;10.40;;
22894;SDS011;11614;52.494;6.976;2023-04-16T14:08:30;13.35;;;10.00;;
22894;SDS011;11614;52.494;6.976;2023-04-16T14:10:56;14.02;;;10.50;;
22894;SDS011;11614;52.494;6.976;2023-04-16T14:13:23;12.48;;;9.60;;
22894;SDS011;11614;52.494;6.976;2023-04-16T14:15:49;12.50;;;8.93;;
22894;SDS011;11614;52.494;6.976;2023-04-16T14:18:15;16.58;;;11.15;;